createdAt,value
2022-09-12T00:02:10.475Z,9.91
2022-09-12T00:08:46.025Z,9.86
2022-09-12T00:11:14.751Z,9.87
2022-09-12T00:13:43.521Z,9.87
2022-09-12T00:16:21.084Z,9.83
2022-09-12T00:18:49.359Z,9.79
2022-09-12T00:21:18.979Z,9.78
2022-09-12T00:23:47.495Z,9.74
2022-09-12T00:26:16.202Z,9.73
2022-09-12T00:28:45.469Z,9.73
2022-09-12T00:31:17.442Z,9.70
2022-09-12T00:33:46.169Z,9.70
2022-09-12T00:36:17.340Z,9.71
2022-09-12T00:38:46.333Z,9.67
2022-09-12T00:41:23.291Z,9.62
2022-09-12T00:43:58.694Z,9.55
2022-09-12T00:46:39.401Z,9.51
2022-09-12T00:49:21.259Z,9.47
2022-09-12T00:56:02.595Z,9.47
2022-09-12T00:58:40.906Z,9.45
2022-09-12T01:01:09.154Z,9.39
2022-09-12T01:03:37.774Z,9.35
2022-09-12T01:06:16.386Z,9.31
2022-09-12T01:08:47.791Z,9.27
2022-09-12T01:11:16.684Z,9.18
2022-09-12T01:13:45.611Z,9.09
2022-09-12T01:16:13.838Z,9.04
2022-09-12T01:18:42.359Z,9.02
2022-09-12T01:21:25.415Z,9.02
2022-09-12T01:24:17.555Z,9.02
2022-09-12T01:26:51.546Z,9.01
2022-09-12T01:29:57.655Z,9.03
2022-09-12T01:32:32.524Z,9.06
2022-09-12T01:35:23.071Z,9.06
2022-09-12T01:37:54.378Z,9.01
2022-09-12T01:40:52.391Z,8.95
2022-09-12T01:43:26.840Z,8.93
2022-09-12T01:46:45.855Z,8.93
2022-09-12T01:49:29.939Z,8.94
2022-09-12T01:52:21.387Z,8.94
2022-09-12T01:55:16.719Z,8.96
2022-09-12T01:58:23.972Z,8.91
2022-09-12T02:01:07.998Z,8.84
2022-09-12T02:04:31.107Z,8.81
2022-09-12T02:07:12.421Z,8.81
2022-09-12T02:09:49.301Z,8.81
2022-09-12T02:12:24.017Z,8.81
2022-09-12T02:15:04.367Z,8.82
2022-09-12T02:18:28.062Z,8.84
2022-09-12T02:20:57.539Z,8.85
2022-09-12T02:23:32.049Z,8.86
2022-09-12T02:26:06.711Z,8.87
2022-09-12T02:28:38.495Z,8.88
2022-09-12T02:31:37.614Z,8.90
2022-09-12T02:34:34.835Z,8.90
2022-09-12T02:37:07.190Z,8.89
2022-09-12T02:39:36.303Z,8.84
2022-09-12T02:42:05.290Z,8.81
2022-09-12T02:44:35.098Z,8.78
2022-09-12T02:47:15.738Z,8.74
2022-09-12T02:49:44.419Z,8.71
2022-09-12T02:52:12.690Z,8.70
2022-09-12T02:54:41.274Z,8.71
2022-09-12T02:57:23.194Z,8.68
2022-09-12T02:59:55.362Z,8.65
2022-09-12T03:02:42.734Z,8.62
2022-09-12T03:05:38.186Z,8.41
2022-09-12T03:08:35.702Z,8.57
2022-09-12T03:11:30.042Z,8.46
2022-09-12T03:13:58.182Z,8.51
2022-09-12T03:16:32.262Z,8.51
2022-09-12T03:19:14.647Z,8.50
2022-09-12T03:21:58.822Z,8.52
2022-09-12T03:24:33.421Z,8.52
2022-09-12T03:27:32.894Z,8.53
2022-09-12T03:30:01.890Z,8.55
2022-09-12T03:32:49.750Z,8.55
2022-09-12T03:35:22.956Z,8.57
2022-09-12T03:37:52.323Z,8.58
2022-09-12T03:40:20.905Z,8.57
2022-09-12T03:42:49.577Z,8.58
2022-09-12T03:45:17.993Z,8.60
2022-09-12T03:47:46.266Z,8.59
2022-09-12T03:50:14.630Z,8.57
2022-09-12T03:52:42.874Z,8.56
2022-09-12T03:55:11.157Z,8.57
2022-09-12T03:57:39.554Z,8.59
2022-09-12T04:00:12.336Z,8.61
2022-09-12T04:02:41.729Z,8.62
2022-09-12T04:05:09.850Z,8.60
2022-09-12T04:07:38.266Z,8.60
2022-09-12T04:10:07.299Z,8.60
2022-09-12T04:12:35.982Z,8.58
2022-09-12T04:15:04.438Z,8.59
2022-09-12T04:17:32.705Z,8.60
2022-09-12T04:20:01.550Z,8.62
2022-09-12T04:22:32.041Z,8.65
2022-09-12T04:25:03.874Z,8.70
2022-09-12T04:27:32.216Z,8.73
2022-09-12T04:30:01.345Z,8.76
2022-09-12T04:32:31.421Z,8.81
2022-09-12T04:34:59.733Z,8.87
2022-09-12T04:37:27.955Z,8.90
2022-09-12T04:39:59.320Z,8.92
2022-09-12T04:42:56.157Z,8.91
2022-09-12T04:45:24.371Z,8.91
2022-09-12T04:47:52.596Z,8.93
2022-09-12T04:50:20.883Z,8.97
2022-09-12T04:52:55.763Z,8.99
2022-09-12T04:55:25.691Z,9.01
2022-09-12T04:57:53.891Z,9.05
2022-09-12T05:00:23.123Z,9.06
2022-09-12T05:03:19.563Z,9.10
2022-09-12T05:05:47.716Z,9.14
2022-09-12T05:08:15.907Z,9.14
2022-09-12T05:10:44.164Z,9.15
2022-09-12T05:13:12.415Z,9.17
2022-09-12T05:15:40.767Z,9.18
2022-09-12T05:18:59.954Z,9.19
2022-09-12T05:21:31.491Z,9.21
2022-09-12T05:24:02.437Z,9.16
2022-09-12T05:26:30.851Z,9.28
2022-09-12T05:28:59.031Z,9.33
2022-09-12T05:31:28.843Z,9.36
2022-09-12T05:33:57.679Z,9.41
2022-09-12T05:37:41.035Z,9.44
2022-09-12T05:44:19.050Z,9.51
2022-09-12T05:46:50.560Z,9.55
2022-09-12T05:49:18.969Z,9.60
2022-09-12T05:51:47.206Z,9.67
2022-09-12T05:54:18.954Z,9.72
2022-09-12T05:56:48.167Z,9.76
2022-09-12T05:59:19.270Z,9.84
2022-09-12T06:01:48.918Z,9.95
2022-09-12T06:04:17.737Z,10.05
2022-09-12T06:06:46.985Z,10.06
2022-09-12T06:09:17.075Z,10.29
2022-09-12T06:11:46.470Z,10.45
2022-09-12T06:14:17.903Z,10.58
2022-09-12T06:16:47.505Z,10.78
2022-09-12T06:19:19.090Z,10.97
2022-09-12T06:21:49.697Z,11.16
2022-09-12T06:24:19.422Z,11.48
2022-09-12T06:26:49.159Z,11.84
2022-09-12T06:29:17.425Z,12.16
2022-09-12T06:31:45.941Z,12.41
2022-09-12T06:34:15.688Z,12.67
2022-09-12T06:36:47.380Z,12.90
2022-09-12T06:39:20.781Z,13.12
2022-09-12T06:41:52.553Z,13.35
2022-09-12T06:44:30.662Z,13.55
2022-09-12T06:46:58.917Z,13.76
2022-09-12T06:49:27.094Z,13.92
2022-09-12T06:51:55.453Z,14.20
2022-09-12T06:54:23.752Z,14.39
2022-09-12T06:56:52.240Z,14.57
2022-09-12T06:59:20.417Z,14.71
2022-09-12T07:01:48.682Z,14.83
2022-09-12T07:04:16.969Z,14.95
2022-09-12T07:06:45.157Z,15.04
2022-09-12T07:09:17.138Z,15.14
2022-09-12T07:11:46.877Z,15.22
2022-09-12T07:14:15.888Z,15.31
2022-09-12T07:16:44.214Z,15.37
2022-09-12T07:19:12.511Z,15.39
2022-09-12T07:21:41.761Z,15.36
2022-09-12T07:24:11.051Z,15.21
2022-09-12T07:26:42.447Z,15.41
2022-09-12T07:29:35.864Z,15.52
2022-09-12T07:32:05.825Z,15.69
2022-09-12T07:34:37.810Z,15.79
2022-09-12T07:37:06.620Z,16.00
2022-09-12T07:39:34.827Z,16.16
2022-09-12T07:42:03.060Z,16.28
2022-09-12T07:44:32.829Z,16.38
2022-09-12T07:47:01.774Z,16.48
2022-09-12T07:49:30.659Z,16.54
2022-09-12T07:51:58.827Z,16.56
2022-09-12T07:54:27.091Z,16.70
2022-09-12T07:56:55.754Z,16.78
2022-09-12T07:59:48.487Z,16.74
2022-09-12T08:02:17.699Z,16.67
2022-09-12T08:04:48.569Z,16.53
2022-09-12T08:07:18.512Z,16.43
2022-09-12T08:09:47.103Z,16.41
2022-09-12T08:12:16.790Z,16.38
2022-09-12T08:14:45.089Z,16.31
2022-09-12T08:17:14.454Z,16.25
2022-09-12T08:19:43.803Z,16.19
2022-09-12T08:22:12.306Z,16.16
2022-09-12T08:24:40.683Z,16.18
2022-09-12T08:27:09.490Z,16.25
2022-09-12T08:29:37.898Z,16.31
2022-09-12T08:32:06.010Z,16.37
2022-09-12T08:34:34.350Z,16.40
2022-09-12T08:37:03.646Z,16.40
2022-09-12T08:39:32.917Z,16.43
2022-09-12T08:42:03.576Z,16.43
2022-09-12T08:44:53.777Z,16.34
2022-09-12T08:47:36.605Z,16.32
2022-09-12T08:50:10.124Z,16.30
2022-09-12T08:52:53.513Z,16.28
2022-09-12T08:55:27.924Z,16.21
2022-09-12T08:57:56.268Z,16.13
2022-09-12T09:00:38.022Z,16.15
2022-09-12T09:03:34.709Z,16.16
2022-09-12T09:06:44.921Z,16.11
2022-09-12T09:09:43.098Z,16.03
2022-09-12T09:12:39.410Z,16.06
2022-09-12T09:15:33.882Z,16.08
2022-09-12T09:18:08.964Z,16.21
2022-09-12T09:20:56.999Z,16.40
2022-09-12T09:23:41.665Z,16.81
2022-09-12T09:26:26.745Z,17.70
2022-09-12T09:29:03.013Z,18.35
2022-09-12T09:31:37.529Z,18.92
2022-09-12T09:34:15.949Z,19.57
2022-09-12T09:36:44.193Z,19.90
2022-09-12T09:39:48.348Z,20.46
2022-09-12T09:42:20.146Z,20.45
2022-09-12T09:44:49.207Z,19.71
2022-09-12T09:47:19.190Z,20.07
2022-09-12T09:49:47.801Z,20.78
2022-09-12T09:52:19.341Z,21.42
2022-09-12T09:54:58.586Z,22.02
2022-09-12T09:57:35.876Z,21.90
2022-09-12T10:00:22.604Z,21.62
2022-09-12T10:03:13.147Z,21.62
2022-09-12T10:05:50.640Z,21.02
2022-09-12T10:08:21.616Z,21.21
2022-09-12T10:11:02.132Z,21.96
2022-09-12T10:13:53.762Z,22.25
2022-09-12T10:16:30.525Z,22.31
2022-09-12T10:19:00.888Z,22.68
2022-09-12T10:21:50.824Z,22.70
2022-09-12T10:24:27.057Z,23.32
2022-09-12T10:27:05.870Z,23.82
2022-09-12T10:29:39.780Z,24.40
2022-09-12T10:32:09.485Z,24.61
2022-09-12T10:34:43.591Z,24.45
2022-09-12T10:37:24.596Z,23.96
2022-09-12T10:39:59.200Z,23.46
2022-09-12T10:42:56.625Z,22.61
2022-09-12T10:45:36.049Z,21.33
2022-09-12T10:48:27.600Z,20.65
2022-09-12T10:50:59.764Z,20.25
2022-09-12T10:53:34.646Z,20.94
2022-09-12T10:56:05.539Z,21.12
2022-09-12T10:58:39.490Z,20.71
2022-09-12T11:01:32.472Z,20.39
2022-09-12T11:04:19.377Z,20.34
2022-09-12T11:06:56.593Z,20.26
2022-09-12T11:09:37.013Z,21.03
2022-09-12T11:12:08.014Z,21.74
2022-09-12T11:15:03.758Z,22.37
2022-09-12T11:17:47.605Z,22.17
2022-09-12T11:20:34.438Z,21.80
2022-09-12T11:23:08.269Z,21.98
2022-09-12T11:25:39.197Z,21.75
2022-09-12T11:28:19.392Z,21.88
2022-09-12T11:31:15.148Z,21.22
2022-09-12T11:33:46.258Z,21.65
2022-09-12T11:36:17.858Z,22.22
2022-09-12T11:38:53.004Z,22.66
2022-09-12T11:41:31.598Z,22.45
2022-09-12T11:44:21.864Z,22.56
2022-09-12T11:46:52.084Z,23.11
2022-09-12T11:49:40.322Z,23.65
2022-09-12T11:52:16.851Z,24.25
2022-09-12T11:54:54.126Z,24.50
2022-09-12T11:57:25.231Z,24.65
2022-09-12T11:59:58.589Z,24.89
2022-09-12T12:02:29.615Z,24.87
2022-09-12T12:05:23.027Z,25.01
2022-09-12T12:07:56.391Z,25.34
2022-09-12T12:10:51.527Z,25.37
2022-09-12T12:13:26.608Z,25.00
2022-09-12T12:15:59.918Z,24.76
2022-09-12T12:18:29.750Z,25.01
2022-09-12T12:21:29.796Z,25.31
2022-09-12T12:24:10.228Z,24.64
2022-09-12T12:26:41.143Z,23.57
2022-09-12T12:29:13.522Z,22.66
2022-09-12T12:32:10.514Z,21.95
2022-09-12T12:34:46.548Z,21.52
2022-09-12T12:37:19.042Z,22.25
2022-09-12T12:39:48.452Z,23.01
2022-09-12T12:42:35.149Z,23.42
2022-09-12T12:45:23.783Z,23.41
2022-09-12T12:48:00.267Z,23.73
2022-09-12T12:50:31.994Z,23.11
2022-09-12T12:53:04.466Z,22.40
2022-09-12T12:55:50.154Z,22.21
2022-09-12T12:58:40.776Z,22.17
2022-09-12T13:01:20.873Z,23.09
2022-09-12T13:03:59.799Z,23.83
2022-09-12T13:06:38.440Z,23.95
2022-09-12T13:09:19.278Z,24.08
2022-09-12T13:11:55.914Z,24.23
2022-09-12T13:14:33.364Z,24.47
2022-09-12T13:17:06.340Z,24.50
2022-09-12T13:19:38.306Z,23.82
2022-09-12T13:22:09.254Z,23.47
2022-09-12T13:24:54.484Z,23.36
2022-09-12T13:27:25.587Z,23.48
2022-09-12T13:30:16.594Z,23.69
2022-09-12T13:32:44.853Z,24.24
2022-09-12T13:35:22.387Z,24.53
2022-09-12T13:38:19.642Z,23.99
2022-09-12T13:41:20.410Z,23.26
2022-09-12T13:43:49.748Z,22.78
2022-09-12T13:46:27.323Z,22.78
2022-09-12T13:48:56.452Z,23.36
2022-09-12T13:51:27.880Z,24.01
2022-09-12T13:53:59.232Z,24.49
2022-09-12T13:56:27.512Z,24.71
2022-09-12T13:58:58.276Z,24.87
2022-09-12T14:01:47.055Z,25.23
2022-09-12T14:04:45.250Z,25.52
2022-09-12T14:07:21.165Z,25.25
2022-09-12T14:09:59.195Z,25.11
2022-09-12T14:12:35.564Z,24.65
2022-09-12T14:15:04.421Z,24.22
2022-09-12T14:17:34.899Z,23.84
2022-09-12T14:20:08.999Z,23.06
2022-09-12T14:22:45.592Z,22.67
2022-09-12T14:25:25.294Z,23.35
2022-09-12T14:27:55.754Z,23.86
2022-09-12T14:30:26.182Z,23.99
2022-09-12T14:33:12.485Z,24.03
2022-09-12T14:36:18.408Z,24.34
2022-09-12T14:39:00.021Z,24.50
2022-09-12T14:41:36.257Z,24.56
2022-09-12T14:44:08.977Z,24.35
2022-09-12T14:46:42.479Z,24.40
2022-09-12T14:49:10.516Z,24.51
2022-09-12T14:51:47.106Z,24.60
2022-09-12T14:54:30.420Z,24.75
2022-09-12T14:57:21.898Z,24.58
2022-09-12T15:00:26.588Z,24.18
2022-09-12T15:02:54.999Z,22.81
2022-09-12T15:05:26.664Z,22.13
2022-09-12T15:08:01.877Z,22.25
2022-09-12T15:10:31.524Z,22.48
2022-09-12T15:13:08.555Z,22.58
2022-09-12T15:15:38.741Z,21.84
2022-09-12T15:18:07.246Z,21.11
2022-09-12T15:20:41.447Z,20.74
2022-09-12T15:23:40.457Z,20.93
2022-09-12T15:26:12.590Z,21.37
2022-09-12T15:28:41.127Z,21.46
2022-09-12T15:31:30.756Z,21.38
2022-09-12T15:34:01.250Z,21.28
2022-09-12T15:36:30.057Z,21.13
2022-09-12T15:38:58.712Z,21.10
2022-09-12T15:41:32.674Z,21.19
2022-09-12T15:44:01.363Z,21.10
2022-09-12T15:46:29.665Z,21.03
2022-09-12T15:48:57.932Z,21.20
2022-09-12T15:51:26.213Z,21.19
2022-09-12T15:53:54.649Z,20.91
2022-09-12T15:56:23.493Z,20.56
2022-09-12T15:58:59.316Z,20.37
2022-09-12T16:01:29.252Z,20.08
2022-09-12T16:03:58.046Z,19.67
2022-09-12T16:06:28.036Z,19.36
2022-09-12T16:08:56.233Z,19.06
2022-09-12T16:11:26.178Z,18.76
2022-09-12T16:13:55.818Z,18.53
2022-09-12T16:16:24.244Z,18.36
2022-09-12T16:18:52.789Z,18.22
2022-09-12T16:21:20.993Z,18.03
2022-09-12T16:23:49.527Z,17.80
2022-09-12T16:26:17.953Z,17.60
2022-09-12T16:28:46.347Z,17.44
2022-09-12T16:31:14.813Z,17.29
2022-09-12T16:33:43.104Z,17.15
2022-09-12T16:36:14.206Z,17.04
2022-09-12T16:38:44.759Z,16.95
2022-09-12T16:41:14.318Z,16.86
2022-09-12T16:43:43.222Z,16.74
2022-09-12T16:46:14.075Z,16.62
2022-09-12T16:48:52.524Z,16.53
2022-09-12T16:51:24.261Z,16.46
2022-09-12T16:53:54.166Z,16.35
2022-09-12T16:56:22.850Z,16.26
2022-09-12T16:58:51.787Z,16.07
2022-09-12T17:01:25.450Z,16.04
2022-09-12T17:03:55.442Z,15.96
2022-09-12T17:06:25.343Z,15.87
2022-09-12T17:08:56.309Z,15.78
2022-09-12T17:11:27.527Z,15.72
2022-09-12T17:14:06.735Z,15.66
2022-09-12T17:16:40.351Z,15.56
2022-09-12T17:19:15.840Z,15.49
2022-09-12T17:21:47.265Z,15.43
2022-09-12T17:24:16.709Z,15.40
2022-09-12T17:26:45.921Z,15.37
2022-09-12T17:29:15.092Z,15.35
2022-09-12T17:31:44.753Z,15.30
2022-09-12T17:34:17.934Z,15.17
2022-09-12T17:36:48.405Z,15.23
2022-09-12T17:39:17.012Z,15.21
2022-09-12T17:41:46.252Z,15.17
2022-09-12T17:44:15.244Z,15.19
2022-09-12T17:46:44.948Z,15.20
2022-09-12T17:50:30.387Z,15.08
2022-09-12T17:52:57.581Z,15.13
2022-09-12T17:55:26.581Z,15.09
2022-09-12T17:58:48.725Z,15.06
2022-09-12T18:01:35.738Z,15.03
2022-09-12T18:04:04.024Z,15.02
2022-09-12T18:06:33.002Z,15.01
2022-09-12T18:09:02.605Z,14.96
2022-09-12T18:11:31.744Z,14.90
2022-09-12T18:14:00.696Z,14.85
2022-09-12T18:17:48.221Z,14.81
2022-09-12T18:20:16.904Z,14.73
2022-09-12T18:22:49.001Z,14.63
2022-09-12T18:25:17.198Z,14.53
2022-09-12T18:27:45.372Z,14.45
2022-09-12T18:30:22.793Z,14.34
2022-09-12T18:32:51.096Z,14.28
2022-09-12T18:35:19.328Z,14.19
2022-09-12T18:37:47.975Z,14.07
2022-09-12T18:40:16.256Z,14.00
2022-09-12T18:42:44.494Z,13.93
2022-09-12T18:45:12.922Z,13.86
2022-09-12T18:47:41.671Z,13.79
2022-09-12T18:50:09.994Z,13.72
2022-09-12T18:52:38.154Z,13.66
2022-09-12T18:55:06.470Z,13.61
2022-09-12T18:57:35.342Z,13.54
2022-09-12T19:00:09.341Z,13.48
2022-09-12T19:02:40.136Z,13.43
2022-09-12T19:05:08.596Z,13.37
2022-09-12T19:07:36.804Z,13.34
2022-09-12T19:10:05.316Z,13.28
2022-09-12T19:12:33.908Z,13.16
2022-09-12T19:15:02.172Z,13.06
2022-09-12T19:17:30.413Z,12.96
2022-09-12T19:19:58.620Z,12.91
2022-09-12T19:22:26.847Z,12.87
2022-09-12T19:24:55.047Z,12.83
2022-09-12T19:27:23.247Z,12.78
2022-09-12T19:29:51.534Z,12.75
2022-09-12T19:32:19.795Z,12.70
2022-09-12T19:34:48.063Z,12.66
2022-09-12T19:37:17.348Z,12.65
2022-09-12T19:39:46.326Z,12.54
2022-09-12T19:42:14.622Z,12.60
2022-09-12T19:44:42.929Z,12.54
2022-09-12T19:47:11.322Z,12.51
2022-09-12T19:49:39.472Z,12.47
2022-09-12T19:52:08.051Z,12.43
2022-09-12T19:54:37.256Z,12.38
2022-09-12T19:57:05.501Z,12.27
2022-09-12T19:59:33.704Z,12.20
2022-09-12T20:02:01.974Z,12.15
2022-09-12T20:04:32.477Z,12.03
2022-09-12T20:07:00.680Z,12.07
2022-09-12T20:09:29.016Z,12.03
2022-09-12T20:11:57.250Z,11.96
2022-09-12T20:14:25.385Z,11.91
2022-09-12T20:16:53.509Z,11.89
2022-09-12T20:19:21.722Z,11.88
2022-09-12T20:21:49.859Z,11.75
2022-09-12T20:24:18.078Z,11.78
2022-09-12T20:26:46.967Z,11.73
2022-09-12T20:29:15.170Z,11.48
2022-09-12T20:31:44.406Z,11.61
2022-09-12T20:34:18.678Z,11.58
2022-09-12T20:37:15.978Z,11.57
2022-09-12T20:39:46.828Z,11.54
2022-09-12T20:42:18.494Z,11.50
2022-09-12T20:44:46.741Z,11.45
2022-09-12T20:47:15.051Z,11.42
2022-09-12T20:49:43.653Z,11.40
2022-09-12T20:52:11.999Z,11.38
2022-09-12T20:54:40.301Z,11.33
2022-09-12T20:58:25.575Z,11.19
2022-09-12T21:00:53.805Z,11.26
2022-09-12T21:03:22.061Z,11.25
2022-09-12T21:05:50.281Z,11.23
2022-09-12T21:08:44.325Z,11.23
2022-09-12T21:11:13.398Z,11.22
2022-09-12T21:13:42.200Z,11.22
2022-09-12T21:16:15.889Z,11.24
2022-09-12T21:18:52.862Z,11.25
2022-09-12T21:21:22.382Z,11.19
2022-09-12T21:23:55.444Z,11.18
2022-09-12T21:26:23.643Z,11.19
2022-09-12T21:29:44.658Z,11.18
2022-09-12T21:32:14.319Z,11.14
2022-09-12T21:34:42.723Z,11.02
2022-09-12T21:37:10.876Z,11.12
2022-09-12T21:39:41.061Z,11.11
2022-09-12T21:42:59.926Z,11.09
2022-09-12T21:45:28.459Z,11.06
2022-09-12T21:47:59.172Z,11.05
2022-09-12T21:50:27.738Z,11.04
2022-09-12T21:52:55.880Z,11.02
2022-09-12T21:55:28.678Z,11.00
2022-09-12T21:58:50.835Z,10.97
2022-09-12T22:01:22.300Z,10.91
2022-09-12T22:03:52.420Z,10.89
2022-09-12T22:06:24.140Z,10.89
2022-09-12T22:08:56.435Z,10.88
2022-09-12T22:11:25.763Z,10.85
2022-09-12T22:13:54.040Z,10.83
2022-09-12T22:16:22.178Z,10.83
2022-09-12T22:18:50.943Z,10.81
2022-09-12T22:21:22.183Z,10.80
2022-09-12T22:24:10.419Z,10.71
2022-09-12T22:26:44.118Z,10.78
2022-09-12T22:29:16.155Z,10.75
2022-09-12T22:31:44.781Z,10.72
2022-09-12T22:34:13.712Z,10.70
2022-09-12T22:36:42.431Z,10.69
2022-09-12T22:39:11.612Z,10.68
2022-09-12T22:41:40.395Z,10.68
2022-09-12T22:44:10.732Z,10.69
2022-09-12T22:46:39.661Z,10.70
2022-09-12T22:49:08.045Z,10.68
2022-09-12T22:52:03.144Z,10.68
2022-09-12T22:54:31.416Z,10.65
2022-09-12T22:56:59.784Z,10.60
2022-09-12T22:59:27.951Z,10.56
2022-09-12T23:01:56.107Z,10.54
2022-09-12T23:04:24.257Z,10.49
2022-09-12T23:06:53.195Z,10.45
2022-09-12T23:09:21.405Z,10.42
2022-09-12T23:11:49.569Z,10.39
2022-09-12T23:14:18.269Z,10.36
2022-09-12T23:16:46.447Z,10.35
2022-09-12T23:19:14.720Z,10.32
2022-09-12T23:21:42.900Z,10.30
2022-09-12T23:24:11.182Z,10.29
2022-09-12T23:26:39.470Z,10.27
2022-09-12T23:29:07.714Z,10.24
2022-09-12T23:35:43.102Z,10.21
2022-09-12T23:38:14.504Z,10.19
2022-09-12T23:40:42.975Z,10.18
2022-09-12T23:44:04.056Z,10.16
2022-09-12T23:46:32.605Z,10.09
2022-09-12T23:49:04.208Z,10.17
2022-09-12T23:51:32.632Z,10.15
2022-09-12T23:54:05.299Z,10.13
2022-09-12T23:56:33.466Z,10.11
2022-09-12T23:59:01.731Z,10.12
